Time;durP1;ratioP1;P1;durP2;ratioP2;P2;SDS_P1;SDS_P2;PMS_P1;PMS_P2;Temp;Humidity;BMP_temperature;BMP_pressure;BME280_temperature;BME280_humidity;BME280_pressure;Samples;Min_cycle;Max_cycle;Signal;HPM_P1;HPM_P2
2023/04/25 00:02:00;;;;;;;4.07;1.70;;;;;;;9.32;35.70;100425.59;4888166;28;20048;-59
2023/04/25 00:04:32;;;;;;;4.10;1.90;;;;;;;9.61;37.44;100414.91;4893874;28;20060;-60
2023/04/25 00:07:06;;;;;;;5.18;2.00;;;;;;;10.03;36.85;100430.09;4897395;28;20052;-60
2023/04/25 00:09:37;;;;;;;4.97;1.85;;;;;;;10.04;36.63;100432.69;4897939;28;20523;-58
2023/04/25 00:12:08;;;;;;;3.35;1.70;;;;;;;9.96;34.81;100438.88;4912926;28;20055;-59
2023/04/25 00:14:40;;;;;;;5.70;1.63;;;;;;;10.00;37.94;100440.56;4909530;28;20120;-59
2023/04/25 00:17:11;;;;;;;5.93;1.60;;;;;;;9.61;33.99;100416.63;4912623;28;20125;-60
2023/04/25 00:19:41;;;;;;;4.15;1.58;;;;;;;9.72;36.27;100438.25;4927103;28;20048;-59
2023/04/25 00:22:12;;;;;;;5.30;2.00;;;;;;;9.76;36.22;100442.59;4931963;28;20056;-59
2023/04/25 00:24:42;;;;;;;21.83;1.98;;;;;;;10.10;33.39;100457.88;4931562;28;20044;-59
2023/04/25 00:27:13;;;;;;;6.57;1.70;;;;;;;10.11;33.78;100472.66;4916144;28;20048;-59
2023/04/25 00:29:45;;;;;;;3.28;1.40;;;;;;;10.01;33.63;100447.50;4917265;28;20059;-59
2023/04/25 00:32:16;;;;;;;4.32;1.30;;;;;;;9.43;32.95;100465.47;4898190;28;20051;-59
2023/04/25 00:34:46;;;;;;;5.72;1.67;;;;;;;9.12;33.70;100474.44;4897771;28;20045;-60
2023/04/25 00:37:18;;;;;;;4.70;2.30;;;;;;;9.00;33.44;100431.91;4904895;28;20095;-59
2023/04/25 00:39:48;;;;;;;6.32;1.67;;;;;;;8.68;33.41;100467.75;4913709;28;20119;-59
2023/04/25 00:42:19;;;;;;;5.03;1.40;;;;;;;8.48;35.23;100486.94;4902138;28;20235;-59
2023/04/25 00:44:51;;;;;;;8.98;1.98;;;;;;;8.68;35.77;100483.38;4921846;28;20049;-59
2023/04/25 00:47:22;;;;;;;6.78;2.30;;;;;;;8.35;35.82;100500.84;4935532;28;20074;-58
2023/04/25 00:49:53;;;;;;;3.80;1.63;;;;;;;8.23;35.72;100508.69;4935347;28;20044;-58
2023/04/25 00:52:23;;;;;;;2.22;1.50;;;;;;;8.62;36.12;100500.75;4944164;28;20121;-59
2023/04/25 00:54:54;;;;;;;9.77;1.50;;;;;;;9.07;34.55;100493.56;4950421;28;20046;-58
2023/04/25 00:57:24;;;;;;;9.68;1.67;;;;;;;9.55;34.11;100521.03;4925879;28;20048;-58
2023/04/25 00:59:56;;;;;;;3.97;1.70;;;;;;;10.10;34.78;100520.53;4930993;28;20060;-58
2023/04/25 01:02:28;;;;;;;6.03;2.05;;;;;;;10.40;32.63;100531.56;4909715;28;20475;-58
2023/04/25 01:04:59;;;;;;;5.82;1.95;;;;;;;10.25;32.91;100509.91;4920176;28;20053;-58
2023/04/25 01:07:30;;;;;;;4.78;2.22;;;;;;;10.45;32.14;100534.97;4933202;28;20091;-60
2023/04/25 01:10:00;;;;;;;9.05;1.80;;;;;;;10.39;31.91;100537.69;4931094;28;20052;-60
2023/04/25 01:12:31;;;;;;;10.20;1.65;;;;;;;10.28;31.02;100543.88;4931137;28;20050;-58
2023/04/25 01:15:03;;;;;;;3.55;1.70;;;;;;;10.22;31.04;100535.22;4930779;28;20052;-59
2023/04/25 01:17:35;;;;;;;4.13;1.50;;;;;;;10.34;31.76;100543.81;4915503;28;20048;-60
2023/04/25 01:20:09;;;;;;;2.95;1.42;;;;;;;10.12;31.12;100534.44;4915280;28;20068;-60
2023/04/25 01:22:41;;;;;;;4.43;1.80;;;;;;;9.87;30.98;100539.88;4921841;28;20053;-58
2023/04/25 01:25:11;;;;;;;6.05;2.00;;;;;;;9.67;31.86;100537.44;4930849;28;20486;-60
2023/04/25 01:27:42;;;;;;;7.93;1.40;;;;;;;9.83;33.02;100538.19;4930837;28;20343;-61
2023/04/25 01:30:13;;;;;;;4.60;1.70;;;;;;;9.81;32.15;100555.63;4930735;28;20589;-60
2023/04/25 01:32:44;;;;;;;9.20;2.33;;;;;;;10.01;31.77;100541.50;4916165;28;20605;-60
2023/04/25 01:35:15;;;;;;;13.10;1.92;;;;;;;9.65;31.29;100554.00;4929899;28;20101;-59
2023/04/25 01:37:47;;;;;;;6.97;3.10;;;;;;;9.46;32.81;100537.59;4915036;28;20491;-60
2023/04/25 01:40:18;;;;;;;9.60;2.10;;;;;;;9.46;33.67;100551.53;4929893;28;20052;-57
2023/04/25 01:42:49;;;;;;;8.27;3.40;;;;;;;9.40;33.25;100559.38;4925694;28;20052;-58
2023/04/25 01:45:19;;;;;;;5.90;1.80;;;;;;;9.65;33.73;100559.22;4932502;28;20061;-59
2023/04/25 01:47:50;;;;;;;10.75;1.58;;;;;;;10.01;34.17;100551.94;4931265;28;20059;-59
2023/04/25 01:50:21;;;;;;;6.35;1.52;;;;;;;10.36;34.09;100529.00;4916530;28;20479;-60
2023/04/25 01:52:54;;;;;;;2.67;1.45;;;;;;;10.14;31.64;100553.56;4914766;28;20044;-58
2023/04/25 01:55:25;;;;;;;10.25;1.73;;;;;;;10.07;33.05;100555.38;4919513;28;20052;-60
2023/04/25 01:57:55;;;;;;;4.10;1.70;;;;;;;10.28;32.42;100546.50;4949472;28;20066;-57
2023/04/25 02:00:26;;;;;;;4.00;1.30;;;;;;;10.69;32.24;100552.13;4929306;28;20056;-59
2023/04/25 02:03:00;;;;;;;8.63;1.52;;;;;;;10.93;31.58;100557.06;4913443;28;20080;-59
2023/04/25 02:05:35;;;;;;;13.63;2.00;;;;;;;11.06;31.00;100568.22;4912822;28;20062;-59
2023/04/25 02:08:08;;;;;;;11.05;1.63;;;;;;;11.31;31.35;100573.09;4930622;28;20048;-61
2023/04/25 02:10:38;;;;;;;11.35;1.98;;;;;;;11.51;29.90;100581.50;4925128;28;20053;-59
2023/04/25 02:13:09;;;;;;;7.32;1.30;;;;;;;11.45;31.04;100581.59;4934406;28;20045;-59
2023/04/25 02:15:39;;;;;;;6.15;1.27;;;;;;;11.47;30.45;100585.06;4931713;28;20050;-60
2023/04/25 02:18:11;;;;;;;5.38;1.50;;;;;;;10.77;28.44;100584.25;4929634;28;20087;-60
2023/04/25 02:20:41;;;;;;;8.88;2.05;;;;;;;10.20;29.59;100587.44;4930028;28;20044;-59
2023/04/25 02:23:15;;;;;;;5.82;1.63;;;;;;;10.09;29.91;100577.09;4930331;28;20406;-60
2023/04/25 02:25:45;;;;;;;8.77;1.60;;;;;;;10.19;31.59;100585.72;4929800;28;20055;-59
2023/04/25 02:28:16;;;;;;;3.67;1.60;;;;;;;10.66;31.68;100568.72;4929749;28;20063;-59
2023/04/25 02:30:46;;;;;;;5.20;1.20;;;;;;;10.89;31.29;100554.50;4929230;28;20097;-60
2023/04/25 02:33:17;;;;;;;7.40;1.40;;;;;;;11.14;29.50;100561.13;4929612;28;20363;-59
2023/04/25 02:35:47;;;;;;;7.45;1.75;;;;;;;11.26;30.55;100567.03;4928024;28;20744;-59
2023/04/25 02:38:19;;;;;;;4.82;1.40;;;;;;;11.43;30.01;100563.31;4931394;28;20053;-59
2023/04/25 02:40:50;;;;;;;5.28;2.10;;;;;;;11.57;30.79;100555.22;4949015;28;20048;-59
2023/04/25 02:43:21;;;;;;;2.95;1.40;;;;;;;11.49;29.18;100556.25;4948732;28;20048;-59
2023/04/25 02:45:52;;;;;;;2.80;1.25;;;;;;;11.60;30.55;100549.09;4948649;28;20623;-59
2023/04/25 02:48:22;;;;;;;4.35;1.25;;;;;;;11.79;30.23;100544.44;4948568;28;20097;-59
2023/04/25 02:50:52;;;;;;;4.47;1.33;;;;;;;11.97;29.60;100532.81;4932469;28;20047;-60
2023/04/25 02:53:24;;;;;;;10.38;1.83;;;;;;;12.05;29.43;100530.91;4948824;28;20043;-60
2023/04/25 02:55:58;;;;;;;5.22;1.58;;;;;;;12.03;27.96;100530.94;4947802;28;20044;-58
2023/04/25 02:58:28;;;;;;;4.63;1.60;;;;;;;11.62;26.69;100532.47;4944372;28;20057;-60
2023/04/25 03:00:59;;;;;;;47.47;3.15;;;;;;;11.65;29.10;100532.41;4945534;28;20120;-60
2023/04/25 03:03:29;;;;;;;9.25;1.40;;;;;;;11.61;27.43;100536.00;4930597;28;20080;-59
2023/04/25 03:06:00;;;;;;;11.10;1.40;;;;;;;11.48;27.52;100544.91;4928801;28;20087;-59
2023/04/25 03:08:34;;;;;;;4.63;1.70;;;;;;;11.26;28.09;100540.88;4929184;28;20056;-60
2023/04/25 03:11:04;;;;;;;5.60;1.15;;;;;;;11.47;28.72;100548.41;4921012;28;20048;-59
2023/04/25 03:13:35;;;;;;;11.35;1.55;;;;;;;11.43;27.86;100559.81;4928722;28;20081;-59
2023/04/25 03:16:05;;;;;;;4.57;1.63;;;;;;;11.25;27.79;100552.25;4912733;28;20298;-59
2023/04/25 03:18:36;;;;;;;3.72;1.20;;;;;;;11.38;28.46;100548.56;4928643;28;20591;-58
2023/04/25 03:21:06;;;;;;;7.05;1.40;;;;;;;11.51;28.38;100550.13;4913233;28;20045;-59
2023/04/25 03:23:38;;;;;;;4.22;1.42;;;;;;;11.60;28.14;100555.19;4928933;28;20044;-59
2023/04/25 03:26:09;;;;;;;3.97;1.63;;;;;;;11.72;28.77;100559.38;4921822;28;20053;-59
2023/04/25 03:28:40;;;;;;;12.00;1.70;;;;;;;11.92;27.43;100556.44;4928685;28;20493;-59
2023/04/25 03:31:10;;;;;;;4.60;1.80;;;;;;;11.55;26.61;100572.72;4928862;28;20047;-59
2023/04/25 03:33:41;;;;;;;4.07;1.50;;;;;;;11.64;27.63;100562.09;4928750;28;20047;-59
2023/04/25 03:36:11;;;;;;;13.05;1.70;;;;;;;11.82;28.92;100563.56;4928084;28;20051;-59
2023/04/25 03:38:48;;;;;;;4.78;1.60;;;;;;;11.92;27.11;100551.22;4928940;28;20055;-60
2023/04/25 03:41:18;;;;;;;6.97;1.45;;;;;;;11.79;27.44;100560.13;4921657;28;20049;-60
2023/04/25 03:43:49;;;;;;;2.80;1.30;;;;;;;11.26;23.17;100569.66;4940085;28;20053;-60
2023/04/25 03:46:20;;;;;;;2.67;1.35;;;;;;;11.23;26.13;100566.22;4933961;28;20059;-60
2023/04/25 03:48:50;;;;;;;25.30;2.92;;;;;;;11.50;26.59;100569.31;4933147;28;20056;-60
2023/04/25 03:51:21;;;;;;;8.77;1.50;;;;;;;11.66;26.40;100562.94;4934637;28;20055;-61
2023/04/25 03:53:53;;;;;;;7.53;1.52;;;;;;;11.61;26.16;100561.31;4938525;28;20497;-60
2023/04/25 03:56:24;;;;;;;5.63;1.30;;;;;;;11.61;26.18;100567.41;4936583;28;20051;-60
2023/04/25 03:58:54;;;;;;;6.95;1.50;;;;;;;11.58;24.80;100551.75;4937977;28;20055;-60
2023/04/25 04:01:25;;;;;;;6.03;1.50;;;;;;;11.72;25.59;100551.50;4938783;28;20055;-60
2023/04/25 04:04:01;;;;;;;10.10;1.50;;;;;;;11.69;25.05;100555.94;4922108;28;20068;-59
2023/04/25 04:06:32;;;;;;;4.70;1.30;;;;;;;11.65;24.99;100550.75;4934330;28;20532;-60
2023/04/25 04:09:06;;;;;;;8.90;1.45;;;;;;;11.76;25.80;100549.72;4933696;28;20092;-60
2023/04/25 04:11:38;;;;;;;9.60;1.33;;;;;;;11.77;24.43;100551.44;4935441;28;20067;-60
2023/04/25 04:14:09;;;;;;;6.75;1.30;;;;;;;11.67;25.54;100561.19;4939517;28;20086;-60
2023/04/25 04:16:40;;;;;;;2.85;1.30;;;;;;;11.73;25.80;100555.88;4942674;28;20052;-60
2023/04/25 04:19:10;;;;;;;4.78;1.40;;;;;;;11.82;25.83;100550.47;4941794;28;20055;-60
2023/04/25 04:21:40;;;;;;;6.13;1.30;;;;;;;11.88;25.25;100552.13;4942278;28;20093;-60
2023/04/25 04:24:13;;;;;;;4.70;1.25;;;;;;;12.03;26.11;100559.75;4941617;28;20147;-60
2023/04/25 04:26:44;;;;;;;4.65;1.58;;;;;;;11.85;23.36;100546.94;4934828;28;20055;-60
2023/04/25 04:29:20;;;;;;;4.35;1.40;;;;;;;11.47;25.70;100543.19;4942406;28;20051;-60
2023/04/25 04:31:52;;;;;;;12.52;1.55;;;;;;;11.68;27.24;100551.56;4923457;28;20059;-60
2023/04/25 04:34:24;;;;;;;2.95;1.33;;;;;;;11.79;25.03;100549.66;4934495;28;20154;-60
2023/04/25 04:36:55;;;;;;;12.85;1.45;;;;;;;11.71;26.29;100551.56;4933867;28;20106;-60
2023/04/25 04:39:27;;;;;;;6.70;1.33;;;;;;;11.80;26.52;100567.09;4938404;28;20047;-60
2023/04/25 04:42:01;;;;;;;3.72;1.25;;;;;;;11.85;26.12;100560.03;4937493;28;20899;-60
2023/04/25 04:44:32;;;;;;;5.35;1.50;;;;;;;11.70;24.97;100575.97;4924758;28;20466;-59
2023/04/25 04:47:03;;;;;;;3.42;1.50;;;;;;;11.65;24.88;100573.44;4940768;28;20096;-61
2023/04/25 04:49:34;;;;;;;9.35;1.40;;;;;;;11.23;23.93;100523.47;4934392;28;20048;-61
2023/04/25 04:52:04;;;;;;;4.25;1.48;;;;;;;11.51;26.16;100602.44;4926265;28;20058;-60
2023/04/25 04:54:37;;;;;;;11.55;2.25;;;;;;;11.64;26.65;100598.75;4940125;28;20062;-60
2023/04/25 04:57:07;;;;;;;4.75;1.20;;;;;;;11.61;22.38;100604.03;4941347;28;20104;-60
2023/04/25 04:59:38;;;;;;;1.92;1.30;;;;;;;11.27;24.06;100603.66;4920326;28;21009;-60
2023/04/25 05:02:08;;;;;;;5.13;1.70;;;;;;;11.29;25.75;100616.72;4944249;28;20045;-61
2023/04/25 05:04:39;;;;;;;2.10;1.48;;;;;;;11.33;24.97;100618.41;4941988;28;20110;-59
2023/04/25 05:07:10;;;;;;;3.80;1.90;;;;;;;11.35;25.56;100627.09;4937073;28;20697;-60
2023/04/25 05:09:42;;;;;;;4.07;1.52;;;;;;;11.53;27.26;100626.84;4938144;28;20075;-60
2023/04/25 05:12:13;;;;;;;3.30;2.08;;;;;;;11.77;26.45;100636.06;4936219;28;20062;-60
2023/04/25 05:14:43;;;;;;;2.47;1.60;;;;;;;11.76;26.74;100618.66;4938120;28;20075;-60
2023/04/25 05:17:14;;;;;;;5.45;1.42;;;;;;;11.98;26.85;100645.41;4925445;28;20474;-60
2023/04/25 05:19:44;;;;;;;15.23;2.30;;;;;;;12.02;26.06;100636.59;4934360;28;20870;-61
2023/04/25 05:22:15;;;;;;;5.55;1.70;;;;;;;12.08;26.48;100641.75;4936791;28;20043;-60
2023/04/25 05:24:48;;;;;;;5.15;1.58;;;;;;;11.88;23.85;100638.53;4924345;28;20056;-59
2023/04/25 05:27:19;;;;;;;4.72;1.40;;;;;;;11.71;26.33;100648.41;4922344;28;20057;-60
2023/04/25 05:29:51;;;;;;;4.03;1.60;;;;;;;11.89;27.17;100656.00;4925570;28;20055;-60
2023/04/25 05:32:22;;;;;;;4.93;1.23;;;;;;;12.07;26.46;100650.47;4923541;28;20139;-60
2023/04/25 05:34:53;;;;;;;4.65;1.85;;;;;;;12.15;26.53;100637.25;4923071;28;20080;-61
2023/04/25 05:37:23;;;;;;;6.57;1.70;;;;;;;12.18;25.86;100638.94;4926028;28;20047;-60
2023/04/25 05:39:55;;;;;;;6.40;1.60;;;;;;;11.98;24.65;100640.16;4924089;28;20051;-60
2023/04/25 05:42:26;;;;;;;7.05;1.30;;;;;;;12.02;25.74;100647.06;4922749;28;20044;-60
2023/04/25 05:44:56;;;;;;;3.45;1.40;;;;;;;12.00;25.21;100648.81;4924215;27;20124;-60
2023/04/25 05:47:27;;;;;;;6.20;1.75;;;;;;;11.96;24.98;100667.25;4926212;28;20051;-60
2023/04/25 05:49:57;;;;;;;9.38;1.50;;;;;;;11.93;24.34;100656.81;4924374;28;20505;-60
2023/04/25 05:52:28;;;;;;;7.47;1.42;;;;;;;11.88;24.64;100667.34;4922756;28;20057;-59
2023/04/25 05:55:00;;;;;;;6.85;1.50;;;;;;;11.92;24.55;100655.94;4932888;28;20056;-59
2023/04/25 05:57:30;;;;;;;6.07;1.60;;;;;;;11.81;23.40;100657.84;4927832;28;20110;-59
2023/04/25 06:00:01;;;;;;;10.98;1.70;;;;;;;11.64;24.19;100656.34;4930913;28;20086;-59
2023/04/25 06:02:31;;;;;;;5.88;1.52;;;;;;;11.54;23.32;100654.75;4923450;28;20158;-59
2023/04/25 06:05:03;;;;;;;5.55;1.27;;;;;;;11.55;24.26;100646.00;4923562;28;20087;-60
2023/04/25 06:07:33;;;;;;;2.40;1.17;;;;;;;11.34;22.66;100622.75;4925329;28;20052;-59
2023/04/25 06:10:07;;;;;;;3.33;1.67;;;;;;;11.50;25.62;100641.72;4923801;28;20052;-59
2023/04/25 06:12:38;;;;;;;4.47;1.67;;;;;;;11.70;25.44;100649.28;4922135;28;20131;-59
2023/04/25 06:15:09;;;;;;;7.47;1.60;;;;;;;11.89;25.36;100645.53;4920580;28;20057;-59
2023/04/25 06:17:56;;;;;;;2.25;1.38;;;;;;;11.64;22.76;100645.88;4912820;28;20416;-59
2023/04/25 06:20:26;;;;;;;3.38;1.10;;;;;;;11.35;23.62;100642.78;4924170;28;20141;-59
2023/04/25 06:22:57;;;;;;;2.10;1.40;;;;;;;11.39;24.83;100615.72;4923146;28;20040;-59
2023/04/25 06:25:29;;;;;;;2.83;1.60;;;;;;;11.57;24.36;100612.81;4928597;28;20093;-59
2023/04/25 06:27:59;;;;;;;13.75;2.20;;;;;;;11.72;24.46;100637.03;4926809;28;20222;-58
2023/04/25 06:30:30;;;;;;;4.60;1.60;;;;;;;11.64;24.24;100635.41;4936783;28;20109;-59
2023/04/25 06:33:01;;;;;;;5.18;1.80;;;;;;;11.73;25.53;100633.53;4935384;28;20203;-58
2023/04/25 06:35:31;;;;;;;4.80;1.83;;;;;;;12.01;25.60;100637.47;4935234;28;20083;-59
2023/04/25 06:38:01;;;;;;;8.15;2.05;;;;;;;12.06;24.60;100633.03;4936221;28;20047;-59
2023/04/25 06:40:33;;;;;;;4.75;2.13;;;;;;;12.05;24.48;100641.75;4935926;28;20044;-59
2023/04/25 06:43:04;;;;;;;6.70;1.70;;;;;;;12.06;24.96;100637.41;4924671;28;20502;-59
2023/04/25 06:45:35;;;;;;;9.68;1.58;;;;;;;11.97;23.76;100643.66;4921962;28;20046;-59
2023/04/25 06:48:06;;;;;;;37.63;4.10;;;;;;;11.98;24.72;100645.41;4936231;28;20178;-59
2023/04/25 06:50:36;;;;;;;73.35;6.70;;;;;;;11.90;24.03;100641.16;4935306;28;20055;-59
2023/04/25 06:53:08;;;;;;;7.85;1.90;;;;;;;11.88;24.78;100635.94;4935642;28;20046;-59
2023/04/25 06:55:40;;;;;;;8.98;1.73;;;;;;;11.95;25.02;100634.09;4929959;28;20525;-59
2023/04/25 06:58:11;;;;;;;20.45;2.47;;;;;;;11.89;24.01;100629.81;4936266;28;20051;-59
2023/04/25 07:00:41;;;;;;;2.83;1.35;;;;;;;11.87;24.18;100629.84;4936210;28;20458;-60
2023/04/25 07:03:12;;;;;;;9.55;1.85;;;;;;;11.72;23.49;100630.03;4935557;28;20052;-59
2023/04/25 07:05:43;;;;;;;6.35;1.80;;;;;;;11.60;23.55;100632.84;4906380;28;20871;-59
2023/04/25 07:08:13;;;;;;;10.80;2.63;;;;;;;11.48;23.29;100633.88;4916019;28;20063;-59
2023/04/25 07:10:46;;;;;;;3.72;1.20;;;;;;;11.62;24.37;100637.16;4916914;28;20071;-59
2023/04/25 07:13:18;;;;;;;3.10;1.50;;;;;;;11.64;25.14;100611.84;4921091;28;20058;-59
2023/04/25 07:15:49;;;;;;;6.88;1.70;;;;;;;11.80;23.54;100643.00;4925719;28;20041;-59
2023/04/25 07:18:19;;;;;;;5.60;1.90;;;;;;;11.65;23.27;100637.13;4920029;28;20062;-59
2023/04/25 07:20:49;;;;;;;3.55;1.60;;;;;;;11.73;23.75;100636.13;4918127;28;20045;-59
2023/04/25 07:23:20;;;;;;;3.72;1.42;;;;;;;11.79;23.90;100641.28;4916479;28;20067;-59
2023/04/25 07:25:52;;;;;;;2.58;1.52;;;;;;;11.87;24.14;100642.94;4943917;28;20056;-59
2023/04/25 07:28:24;;;;;;;3.00;1.30;;;;;;;11.94;23.95;100643.69;4943459;28;20400;-59
2023/04/25 07:30:54;;;;;;;4.90;1.83;;;;;;;11.99;24.18;100647.13;4943311;28;20051;-59
2023/04/25 07:33:25;;;;;;;3.00;1.60;;;;;;;11.93;23.23;100647.22;4942769;28;20075;-59
2023/04/25 07:35:55;;;;;;;3.45;1.52;;;;;;;11.65;23.95;100620.56;4942586;28;20051;-59
2023/04/25 07:38:26;;;;;;;10.10;3.47;;;;;;;11.86;23.98;100656.03;4943675;28;20044;-59
2023/04/25 07:40:58;;;;;;;10.38;1.90;;;;;;;11.84;23.80;100658.66;4942594;28;20047;-59
2023/04/25 07:43:28;;;;;;;7.10;2.38;;;;;;;11.84;23.69;100658.66;4939685;28;20451;-59
2023/04/25 07:45:59;;;;;;;3.97;1.98;;;;;;;11.80;22.96;100667.44;4947838;28;20094;-58
2023/04/25 07:48:29;;;;;;;3.88;1.60;;;;;;;11.74;23.06;100666.69;4944591;28;20053;-60
2023/04/25 07:51:00;;;;;;;4.15;1.50;;;;;;;11.72;23.56;100678.91;4942353;28;20062;-60
2023/04/25 07:53:31;;;;;;;2.97;1.63;;;;;;;11.74;23.50;100682.38;4943472;28;20047;-59
2023/04/25 07:56:04;;;;;;;8.77;2.20;;;;;;;11.75;23.59;100676.25;4943113;28;20070;-59
2023/04/25 07:58:35;;;;;;;3.88;1.73;;;;;;;11.60;23.65;100675.56;4928164;28;20044;-59
2023/04/25 08:01:05;;;;;;;8.15;1.80;;;;;;;11.57;23.19;100691.34;4928049;28;20055;-59
2023/04/25 08:03:36;;;;;;;7.68;1.95;;;;;;;11.52;23.56;100692.28;4928448;28;20071;-59
2023/04/25 08:06:08;;;;;;;7.93;1.65;;;;;;;11.41;23.12;100706.38;4928017;28;20048;-59
2023/04/25 08:08:39;;;;;;;5.25;2.03;;;;;;;11.22;22.62;100705.72;4923463;28;20056;-59
2023/04/25 08:11:11;;;;;;;5.18;1.95;;;;;;;11.16;22.55;100697.97;4931345;28;20319;-59
2023/04/25 08:13:42;;;;;;;6.93;1.88;;;;;;;11.16;23.42;100715.41;4928571;28;20056;-59
2023/04/25 08:16:12;;;;;;;5.50;2.10;;;;;;;11.14;23.72;100712.81;4929063;28;20044;-59
2023/04/25 08:18:43;;;;;;;18.63;2.92;;;;;;;11.20;24.07;100717.94;4923964;28;20632;-60
2023/04/25 08:21:15;;;;;;;9.10;2.17;;;;;;;11.19;23.82;100726.69;4927886;28;20410;-59
2023/04/25 08:23:45;;;;;;;7.40;2.08;;;;;;;11.06;23.67;100725.13;4930166;28;20477;-59
2023/04/25 08:26:18;;;;;;;10.25;2.88;;;;;;;10.97;24.38;100726.06;4939254;28;20149;-59
2023/04/25 08:28:48;;;;;;;5.05;2.10;;;;;;;10.95;24.18;100716.50;4938078;28;20083;-59
2023/04/25 08:31:19;;;;;;;10.45;2.00;;;;;;;10.90;23.05;100719.16;4943077;28;20126;-58
2023/04/25 08:33:51;;;;;;;3.85;1.92;;;;;;;10.86;23.75;100721.81;4942882;28;20044;-59
2023/04/25 08:36:22;;;;;;;4.38;2.00;;;;;;;10.84;24.12;100723.59;4940573;28;20050;-59
2023/04/25 08:39:07;;;;;;;12.18;2.28;;;;;;;10.82;24.02;100730.59;4929439;28;20144;-59
2023/04/25 08:41:41;;;;;;;13.00;4.93;;;;;;;10.75;23.81;100730.63;4941160;28;20058;-59
2023/04/25 08:44:13;;;;;;;12.68;4.47;;;;;;;10.65;23.91;100722.91;4941272;28;20387;-59
2023/04/25 08:46:44;;;;;;;11.27;5.72;;;;;;;10.60;24.25;100724.69;4935482;28;20081;-59
2023/04/25 08:49:15;;;;;;;17.30;3.97;;;;;;;10.51;24.17;100730.88;4937829;28;20138;-59
2023/04/25 08:51:49;;;;;;;15.77;2.88;;;;;;;10.34;24.24;100729.28;4937297;28;20047;-59
2023/04/25 08:54:23;;;;;;;13.93;2.97;;;;;;;10.24;24.81;100727.56;4928346;28;20924;-58
2023/04/25 08:57:08;;;;;;;12.70;2.53;;;;;;;10.09;25.00;100722.47;4927410;28;20157;-59
2023/04/25 08:59:39;;;;;;;7.97;2.30;;;;;;;9.90;24.79;100727.78;4936194;28;20059;-59
2023/04/25 09:02:11;;;;;;;12.15;3.00;;;;;;;9.77;25.09;100728.75;4944481;28;20045;-59
2023/04/25 09:04:43;;;;;;;19.80;3.25;;;;;;;9.70;25.25;100732.28;4941080;28;20050;-59
2023/04/25 09:07:21;;;;;;;19.05;4.40;;;;;;;9.59;25.79;100731.47;4939602;28;20058;-59
2023/04/25 09:09:51;;;;;;;22.42;4.05;;;;;;;9.39;25.90;100736.78;4916157;28;20043;-58
2023/04/25 09:12:25;;;;;;;24.83;2.85;;;;;;;9.28;26.54;100726.38;4936805;28;20136;-59
2023/04/25 09:15:09;;;;;;;16.13;2.92;;;;;;;9.12;26.82;100719.47;4941033;28;20044;-59
2023/04/25 09:17:44;;;;;;;11.20;2.75;;;;;;;9.07;27.47;100725.56;4911261;28;20057;-58
2023/04/25 09:20:15;;;;;;;17.88;3.17;;;;;;;8.97;28.14;100729.06;4927914;28;20059;-58
2023/04/25 09:22:48;;;;;;;10.20;2.67;;;;;;;8.80;28.23;100723.88;4929510;28;20048;-58
2023/04/25 09:25:20;;;;;;;12.45;3.17;;;;;;;8.78;28.70;100724.75;4922867;28;20060;-59
2023/04/25 09:27:56;;;;;;;12.85;3.25;;;;;;;8.57;29.00;100721.31;4923774;28;20095;-59
2023/04/25 09:30:32;;;;;;;11.88;4.97;;;;;;;8.35;29.98;100722.16;4915614;28;20727;-59
2023/04/25 09:33:07;;;;;;;12.50;6.15;;;;;;;8.07;30.78;100729.94;4894861;28;20053;-58
2023/04/25 09:35:39;;;;;;;21.00;7.50;;;;;;;7.92;31.20;100733.41;4915678;28;20554;-59
2023/04/25 09:38:12;;;;;;;25.52;8.25;;;;;;;7.78;30.66;100725.53;4917896;28;20118;-59
2023/04/25 09:40:43;;;;;;;33.75;5.40;;;;;;;7.67;30.76;100735.06;4916411;28;20052;-58
2023/04/25 09:43:23;;;;;;;13.77;3.67;;;;;;;7.57;30.65;100733.31;4917653;28;21393;-59
2023/04/25 09:45:59;;;;;;;8.70;4.35;;;;;;;7.51;31.23;100733.28;4905212;28;20059;-59
2023/04/25 09:48:31;;;;;;;13.50;4.80;;;;;;;7.45;31.77;100744.53;4905240;28;20607;-59
2023/04/25 09:51:10;;;;;;;10.77;5.13;;;;;;;7.29;31.36;100732.34;4917108;28;20495;-58
2023/04/25 09:53:42;;;;;;;;;;;;;;;7.23;31.79;100738.34;4907837;28;20048;-59
2023/04/25 09:56:14;;;;;;;7.55;4.13;;;;;;;7.10;32.09;100741.75;4915849;28;20097;-59
2023/04/25 09:58:52;;;;;;;10.52;3.90;;;;;;;7.15;32.06;100745.25;4916438;28;20131;-59
2023/04/25 10:01:25;;;;;;;7.55;3.45;;;;;;;7.08;32.55;100733.09;4905596;28;20081;-58
2023/04/25 10:04:00;;;;;;;9.68;3.92;;;;;;;6.87;31.70;100713.91;4917921;28;20147;-59
2023/04/25 10:06:34;;;;;;;11.18;4.18;;;;;;;6.99;31.58;100733.03;4907202;28;20056;-58
2023/04/25 10:09:08;;;;;;;13.40;4.00;;;;;;;7.04;31.24;100726.13;4925399;28;20100;-58
2023/04/25 10:11:41;;;;;;;21.52;4.50;;;;;;;7.02;30.83;100743.47;4915995;28;20388;-58
2023/04/25 10:14:15;;;;;;;11.80;3.40;;;;;;;6.97;31.01;100734.78;4922024;28;20059;-58
2023/04/25 10:16:49;;;;;;;10.85;3.47;;;;;;;7.02;31.07;100748.66;4913722;28;20052;-58
2023/04/25 10:19:21;;;;;;;9.20;3.42;;;;;;;7.01;31.34;100749.50;4906853;28;20603;-58
2023/04/25 10:21:56;;;;;;;11.82;2.70;;;;;;;6.99;31.05;100748.59;4917235;28;20096;-58
2023/04/25 10:24:29;;;;;;;6.18;2.65;;;;;;;7.08;30.94;100743.47;4921682;28;20051;-58
2023/04/25 10:27:01;;;;;;;8.52;2.78;;;;;;;7.12;30.34;100737.44;4909859;28;20052;-59
2023/04/25 10:29:35;;;;;;;5.07;2.30;;;;;;;7.26;29.93;100754.00;4920893;28;20040;-58
2023/04/25 10:32:07;;;;;;;3.88;2.05;;;;;;;7.32;29.61;100754.00;4891769;28;20167;-58
2023/04/25 10:34:43;;;;;;;6.43;2.28;;;;;;;7.32;28.75;100764.41;4891347;28;20113;-58
2023/04/25 10:37:16;;;;;;;4.90;2.22;;;;;;;7.30;29.17;100753.13;4881365;28;20061;-57
2023/04/25 10:39:47;;;;;;;9.25;2.65;;;;;;;7.34;28.04;100757.47;4891723;28;20115;-57
2023/04/25 10:42:20;;;;;;;4.22;2.63;;;;;;;7.39;28.58;100759.22;4886554;28;20057;-57
2023/04/25 10:45:08;;;;;;;3.25;2.35;;;;;;;7.45;27.83;100767.06;4892242;28;20242;-57
2023/04/25 10:47:46;;;;;;;6.45;2.63;;;;;;;7.29;27.38;100748.78;4885787;28;20088;-57
2023/04/25 10:50:18;;;;;;;10.95;3.85;;;;;;;7.13;27.93;100752.16;4890287;28;20076;-57
2023/04/25 10:52:50;;;;;;;9.10;3.63;;;;;;;7.25;29.10;100778.22;4884692;28;20061;-57
2023/04/25 10:55:23;;;;;;;17.95;3.47;;;;;;;7.08;30.98;100774.66;4891950;28;20183;-57
2023/04/25 10:57:55;;;;;;;8.43;3.03;;;;;;;6.85;31.35;100783.16;4919593;28;20052;-57
2023/04/25 11:00:31;;;;;;;14.15;4.10;;;;;;;6.04;31.82;100708.09;4913468;28;20057;-57
2023/04/25 11:03:26;;;;;;;20.55;5.32;;;;;;;6.36;33.15;100792.28;4903166;28;20148;-57
2023/04/25 11:05:58;;;;;;;22.63;8.40;;;;;;;6.18;34.56;100787.78;4917102;28;20056;-57
2023/04/25 11:08:42;;;;;;;26.98;9.77;;;;;;;6.03;35.66;100810.13;4910564;28;20049;-57
2023/04/25 11:11:13;;;;;;;30.00;10.55;;;;;;;5.79;36.56;100802.03;4903710;28;20105;-57
2023/04/25 11:13:45;;;;;;;25.08;10.48;;;;;;;5.53;37.93;100800.00;4915015;28;20457;-57
2023/04/25 11:16:19;;;;;;;28.20;10.50;;;;;;;5.39;38.33;100778.19;4910615;28;20808;-57
2023/04/25 11:18:54;;;;;;;32.28;10.85;;;;;;;5.46;39.11;100813.72;4909635;28;20052;-57
2023/04/25 11:21:27;;;;;;;41.42;10.43;;;;;;;5.07;39.71;100765.69;4919090;28;20064;-57
2023/04/25 11:23:59;;;;;;;23.83;9.30;;;;;;;5.29;40.76;100815.22;4904685;28;20100;-57
2023/04/25 11:26:32;;;;;;;25.23;8.10;;;;;;;5.19;41.73;100817.69;4920064;28;20053;-58
2023/04/25 11:29:03;;;;;;;23.38;8.15;;;;;;;5.10;42.26;100820.13;4921721;28;20518;-57
2023/04/25 11:31:37;;;;;;;31.60;8.38;;;;;;;4.99;43.18;100829.44;4919276;28;20062;-57
2023/04/25 11:34:08;;;;;;;16.35;7.97;;;;;;;5.04;43.01;100822.66;4921681;28;20180;-56
2023/04/25 11:36:40;;;;;;;26.23;8.00;;;;;;;5.00;42.69;100820.84;4908575;28;20061;-55
2023/04/25 11:39:10;;;;;;;28.05;7.93;;;;;;;5.03;42.60;100820.88;4909829;28;20051;-55
2023/04/25 11:41:42;;;;;;;23.95;7.93;;;;;;;4.96;42.51;100819.91;4910638;28;20125;-56
2023/04/25 11:44:17;;;;;;;23.80;6.60;;;;;;;4.96;41.59;100827.69;4910374;28;20105;-57
2023/04/25 11:46:50;;;;;;;22.30;5.80;;;;;;;5.01;41.83;100827.75;4910216;28;20063;-56